createdAt,value
2022-10-10T00:03:35.184Z,4.60
2022-10-10T00:08:42.794Z,4.50
2022-10-10T00:13:57.420Z,4.40
2022-10-10T00:19:05.513Z,4.30
2022-10-10T00:24:14.813Z,4.30
2022-10-10T00:29:21.767Z,4.30
2022-10-10T00:34:32.770Z,4.20
2022-10-10T00:39:39.155Z,4.20
2022-10-10T00:44:48.671Z,4.20
2022-10-10T00:49:55.387Z,4.20
2022-10-10T00:55:02.326Z,4.10
2022-10-10T01:00:15.136Z,4.10
2022-10-10T01:05:20.527Z,4.00
2022-10-10T01:10:27.158Z,3.90
2022-10-10T01:16:03.074Z,3.90
2022-10-10T01:21:21.776Z,3.80
2022-10-10T01:26:50.861Z,3.90
2022-10-10T01:32:00.151Z,3.90
2022-10-10T01:37:21.067Z,3.90
2022-10-10T01:42:31.995Z,3.90
2022-10-10T01:47:37.887Z,3.80
2022-10-10T01:52:55.531Z,3.70
2022-10-10T01:58:16.949Z,3.70
2022-10-10T02:03:28.102Z,3.60
2022-10-10T02:08:45.064Z,3.60
2022-10-10T02:13:58.899Z,3.60
2022-10-10T02:19:06.585Z,3.50
2022-10-10T02:24:14.600Z,3.50
2022-10-10T02:29:25.720Z,3.50
2022-10-10T02:34:34.005Z,3.50
2022-10-10T02:39:42.283Z,3.40
2022-10-10T02:44:52.240Z,3.40
2022-10-10T02:49:57.732Z,3.40
2022-10-10T02:55:05.640Z,3.30
2022-10-10T03:00:12.598Z,3.30
2022-10-10T03:05:19.697Z,3.30
2022-10-10T03:10:27.593Z,3.20
2022-10-10T03:15:35.755Z,3.20
2022-10-10T03:20:44.502Z,3.10
2022-10-10T03:25:51.864Z,3.10
2022-10-10T03:31:01.617Z,3.00
2022-10-10T03:36:13.859Z,3.00
2022-10-10T03:41:29.862Z,2.90
2022-10-10T03:46:37.899Z,2.90
2022-10-10T03:51:48.931Z,2.80
2022-10-10T03:56:53.926Z,2.80
2022-10-10T04:02:04.320Z,2.80
2022-10-10T04:07:15.172Z,2.70
2022-10-10T04:12:20.295Z,2.60
2022-10-10T04:17:25.507Z,2.60
2022-10-10T04:22:30.868Z,2.50
2022-10-10T04:27:36.448Z,2.60
2022-10-10T04:32:42.799Z,2.70
2022-10-10T04:37:49.906Z,2.80
2022-10-10T04:42:58.103Z,2.70
2022-10-10T04:48:05.103Z,2.70
2022-10-10T04:53:10.474Z,2.70
2022-10-10T04:58:21.921Z,2.70
2022-10-10T05:03:28.744Z,2.70
2022-10-10T05:08:34.027Z,2.80
2022-10-10T05:13:39.310Z,2.80
2022-10-10T05:18:44.578Z,2.80
2022-10-10T05:23:49.884Z,2.90
2022-10-10T05:28:55.923Z,3.00
2022-10-10T05:34:01.248Z,3.10
2022-10-10T05:39:07.681Z,3.20
2022-10-10T05:44:14.408Z,3.40
2022-10-10T05:49:20.107Z,3.50
2022-10-10T05:54:25.368Z,3.60
2022-10-10T05:59:35.293Z,3.70
2022-10-10T06:04:42.086Z,3.80
2022-10-10T06:09:53.871Z,4.00
2022-10-10T06:15:15.624Z,4.20
2022-10-10T06:20:29.077Z,4.50
2022-10-10T06:31:05.237Z,5.20
2022-10-10T06:36:16.607Z,5.60
2022-10-10T06:41:29.195Z,5.90
2022-10-10T06:46:37.329Z,6.20
2022-10-10T06:51:45.653Z,6.50
2022-10-10T06:56:52.974Z,6.90
2022-10-10T07:01:59.945Z,7.20
2022-10-10T07:07:06.844Z,7.70
2022-10-10T07:12:14.835Z,8.00
2022-10-10T07:17:20.200Z,8.50
2022-10-10T07:22:38.866Z,8.70
2022-10-10T07:27:47.743Z,8.70
2022-10-10T07:32:55.900Z,8.90
2022-10-10T07:38:03.883Z,9.30
2022-10-10T07:43:09.186Z,9.40
2022-10-10T07:48:19.772Z,9.70
2022-10-10T07:53:27.217Z,10.30
2022-10-10T07:58:43.279Z,10.10
2022-10-10T08:03:48.962Z,10.30
2022-10-10T08:08:56.652Z,10.40
2022-10-10T08:14:08.462Z,11.00
2022-10-10T08:19:15.006Z,11.10
2022-10-10T08:24:25.450Z,11.50
2022-10-10T08:29:36.079Z,11.50
2022-10-10T08:34:41.478Z,12.00
2022-10-10T08:39:48.439Z,12.70
2022-10-10T08:45:00.246Z,13.10
2022-10-10T08:50:25.964Z,13.20
2022-10-10T08:55:56.215Z,13.90
2022-10-10T09:01:29.612Z,13.80
2022-10-10T09:07:00.115Z,14.00
2022-10-10T09:12:20.525Z,14.40
2022-10-10T09:17:53.171Z,14.60
2022-10-10T09:28:54.736Z,14.60
2022-10-10T09:34:31.227Z,14.50
2022-10-10T09:39:48.494Z,14.70
2022-10-10T09:44:54.016Z,14.40
2022-10-10T09:55:21.755Z,14.90
2022-10-10T10:00:30.365Z,15.20
2022-10-10T10:05:36.462Z,15.60
2022-10-10T10:10:42.324Z,15.80
2022-10-10T10:15:53.388Z,15.80
2022-10-10T10:21:11.215Z,15.70
2022-10-10T10:26:22.734Z,15.90
2022-10-10T10:31:48.915Z,16.20
2022-10-10T10:37:13.918Z,16.40
2022-10-10T10:42:34.750Z,16.20
2022-10-10T10:47:43.094Z,16.70
2022-10-10T10:53:00.180Z,16.70
2022-10-10T10:59:05.813Z,16.40
2022-10-10T11:05:20.843Z,16.40
2022-10-10T11:09:06.741Z,16.60
2022-10-10T11:14:18.095Z,16.80
2022-10-10T11:19:45.766Z,16.60
2022-10-10T11:25:01.201Z,16.70
2022-10-10T11:30:15.815Z,17.10
2022-10-10T11:35:30.108Z,17.00
2022-10-10T11:40:38.333Z,17.00
2022-10-10T11:45:53.757Z,17.10
2022-10-10T11:50:59.752Z,17.20
2022-10-10T11:56:10.924Z,17.10
2022-10-10T12:01:25.187Z,17.00
2022-10-10T12:06:33.461Z,17.10
2022-10-10T12:11:49.304Z,17.20
2022-10-10T12:16:55.011Z,17.20
2022-10-10T12:22:10.009Z,17.10
2022-10-10T12:27:31.013Z,17.30
2022-10-10T12:32:42.158Z,17.30
2022-10-10T12:38:10.479Z,17.20
2022-10-10T12:43:46.445Z,17.30
2022-10-10T12:49:03.859Z,17.40
2022-10-10T12:54:21.667Z,17.30
2022-10-10T12:59:27.627Z,17.10
2022-10-10T13:04:38.049Z,17.00
2022-10-10T13:09:48.701Z,17.10
2022-10-10T13:14:58.009Z,17.10
2022-10-10T13:20:10.881Z,17.10
2022-10-10T13:25:29.184Z,17.10
2022-10-10T13:30:37.124Z,17.00
2022-10-10T13:35:43.519Z,17.00
2022-10-10T13:40:49.141Z,17.00
2022-10-10T13:45:59.371Z,17.10
2022-10-10T13:51:14.669Z,17.00
2022-10-10T13:56:25.512Z,16.90
2022-10-10T14:01:33.862Z,16.90
2022-10-10T14:06:40.231Z,16.80
2022-10-10T14:11:55.275Z,16.50
2022-10-10T14:17:04.914Z,16.20
2022-10-10T14:22:11.474Z,15.90
2022-10-10T14:27:29.201Z,15.60
2022-10-10T14:32:35.244Z,15.50
2022-10-10T14:37:45.620Z,15.30
2022-10-10T14:42:52.551Z,15.30
2022-10-10T14:47:57.609Z,15.30
2022-10-10T14:53:04.189Z,15.20
2022-10-10T14:58:12.364Z,15.10
2022-10-10T15:03:24.180Z,15.00
2022-10-10T15:08:30.593Z,15.00
2022-10-10T15:13:36.900Z,14.90
2022-10-10T15:18:54.035Z,14.80
2022-10-10T15:23:50.496Z,14.70
2022-10-10T15:28:57.099Z,14.70
2022-10-10T15:34:02.272Z,14.60
2022-10-10T15:39:07.581Z,14.50
2022-10-10T15:44:15.073Z,14.40
2022-10-10T15:49:20.862Z,14.30
2022-10-10T15:54:26.013Z,14.20
2022-10-10T15:59:33.886Z,14.00
2022-10-10T16:04:39.689Z,14.00
2022-10-10T16:09:45.105Z,13.80
2022-10-10T16:14:50.318Z,13.70
2022-10-10T16:19:55.415Z,13.60
2022-10-10T16:25:21.377Z,13.50
2022-10-10T16:30:09.199Z,13.50
2022-10-10T16:35:14.361Z,13.40
2022-10-10T16:40:19.610Z,13.30
2022-10-10T16:45:26.169Z,13.20
2022-10-10T16:50:31.601Z,13.20
2022-10-10T16:55:41.194Z,13.30
2022-10-10T17:00:46.520Z,13.30
2022-10-10T17:06:04.056Z,13.30
2022-10-10T17:11:10.121Z,13.40
2022-10-10T17:17:06.998Z,13.30
2022-10-10T17:21:26.135Z,13.20
2022-10-10T17:26:31.396Z,13.20
2022-10-10T17:31:36.700Z,13.30
2022-10-10T17:36:42.057Z,13.20
2022-10-10T17:41:50.332Z,13.20
2022-10-10T17:46:56.783Z,13.20
2022-10-10T17:52:01.990Z,13.10
2022-10-10T17:57:08.971Z,13.00
2022-10-10T18:02:16.737Z,12.90
2022-10-10T18:07:24.207Z,12.80
2022-10-10T18:12:32.861Z,12.70
2022-10-10T18:17:39.244Z,12.70
2022-10-10T18:22:45.156Z,12.60
2022-10-10T18:27:50.782Z,12.50
2022-10-10T18:32:56.058Z,12.50
2022-10-10T18:38:02.506Z,12.40
2022-10-10T18:43:07.717Z,12.40
2022-10-10T18:48:12.964Z,12.50
2022-10-10T18:53:18.264Z,12.50
2022-10-10T18:58:27.885Z,12.50
2022-10-10T19:03:33.138Z,12.50
2022-10-10T19:08:39.503Z,12.50
2022-10-10T19:13:44.809Z,12.40
2022-10-10T19:18:50.092Z,12.30
2022-10-10T19:23:55.442Z,12.30
2022-10-10T19:29:07.139Z,12.30
2022-10-10T19:34:13.502Z,12.20
2022-10-10T19:39:18.805Z,12.00
2022-10-10T19:44:23.993Z,12.00
2022-10-10T19:49:31.597Z,12.00
2022-10-10T19:54:36.879Z,11.90
2022-10-10T19:59:42.649Z,11.90
2022-10-10T20:04:47.757Z,11.70
2022-10-10T20:09:52.937Z,11.70
2022-10-10T20:14:58.731Z,11.70
2022-10-10T20:20:05.420Z,11.60
2022-10-10T20:25:10.655Z,11.60
2022-10-10T20:30:15.898Z,11.50
2022-10-10T20:35:21.098Z,11.50
2022-10-10T20:40:28.043Z,11.50
2022-10-10T20:45:34.848Z,11.40
2022-10-10T20:50:40.359Z,11.40
2022-10-10T20:55:45.567Z,11.40
2022-10-10T21:00:50.872Z,11.30
2022-10-10T21:06:05.279Z,11.30
2022-10-10T21:11:13.643Z,11.30
2022-10-10T21:16:19.295Z,11.30
2022-10-10T21:21:25.194Z,11.20
2022-10-10T21:26:32.604Z,11.20
2022-10-10T21:31:40.145Z,11.10
2022-10-10T21:36:47.496Z,11.10
2022-10-10T21:41:52.703Z,11.10
2022-10-10T21:46:57.878Z,11.10
2022-10-10T21:52:03.039Z,11.00
2022-10-10T21:57:08.384Z,11.00
2022-10-10T22:02:13.519Z,11.00
2022-10-10T22:07:18.708Z,11.00
2022-10-10T22:12:24.034Z,10.90
2022-10-10T22:17:29.250Z,10.80
2022-10-10T22:22:37.279Z,10.70
2022-10-10T22:27:43.167Z,10.60
2022-10-10T22:32:48.295Z,10.60
2022-10-10T22:37:53.472Z,10.60
2022-10-10T22:42:58.943Z,10.50
2022-10-10T22:48:04.112Z,10.40
2022-10-10T22:53:09.360Z,10.30
2022-10-10T22:58:14.511Z,10.10
2022-10-10T23:03:20.450Z,10.00
2022-10-10T23:08:25.650Z,9.80
2022-10-10T23:13:32.469Z,9.70
2022-10-10T23:18:37.669Z,9.50
2022-10-10T23:23:43.020Z,9.40
2022-10-10T23:28:52.239Z,9.30
2022-10-10T23:33:57.451Z,9.30
2022-10-10T23:39:05.467Z,9.30
2022-10-10T23:44:09.479Z,9.30
2022-10-10T23:49:14.634Z,9.30
2022-10-10T23:54:19.937Z,9.40
2022-10-10T23:59:25.109Z,9.40
